Time;durP1;ratioP1;P1;durP2;ratioP2;P2;SDS_P1;SDS_P2;PMS_P1;PMS_P2;Temp;Humidity;BMP_temperature;BMP_pressure;BME280_temperature;BME280_humidity;BME280_pressure;Samples;Min_cycle;Max_cycle;Signal;HPM_P1;HPM_P2
2021/04/27 00:00:28;;;;;;;0.60;0.60;;;;;;;6.95;36.69;96208.81;29373;255;63005;-54
2021/04/27 00:01:00;;;;;;;0.60;0.60;;;;;;;6.96;36.98;96218.50;29371;218;64013;-62
2021/04/27 00:01:32;;;;;;;0.60;0.60;;;;;;;6.94;36.85;96212.59;29373;241;63004;-64
2021/04/27 00:02:03;;;;;;;0.60;0.60;;;;;;;6.95;37.23;96214.19;29373;203;63009;-62
2021/04/27 00:02:35;;;;;;;0.60;0.60;;;;;;;6.93;36.72;96214.47;29374;279;63004;-55
2021/04/27 00:03:07;;;;;;;0.60;0.60;;;;;;;6.94;37.02;96209.91;29371;259;64013;-64
2021/04/27 00:03:38;;;;;;;0.60;0.60;;;;;;;6.95;35.81;96211.50;29373;223;63004;-62
2021/04/27 00:04:10;;;;;;;0.60;0.60;;;;;;;6.93;36.40;96205.63;29371;252;64009;-55
2021/04/27 00:04:45;;;;;;;0.60;0.60;;;;;;;6.91;36.69;96210.50;29373;252;63005;-55
2021/04/27 00:05:17;;;;;;;0.55;0.55;;;;;;;6.95;36.24;96214.19;29373;328;63015;-55
2021/04/27 00:05:49;;;;;;;0.50;0.50;;;;;;;6.95;35.98;96209.59;29373;226;63005;-55
2021/04/27 00:06:21;;;;;;;0.60;0.60;;;;;;;6.91;35.87;96202.41;29373;203;63009;-62
2021/04/27 00:06:52;;;;;;;0.60;0.60;;;;;;;6.88;36.60;96208.38;29373;207;63005;-55
2021/04/27 00:07:23;;;;;;;0.60;0.60;;;;;;;6.80;37.34;96208.97;29373;246;63009;-55
2021/04/27 00:07:58;;;;;;;0.70;0.70;;;;;;;6.72;37.17;96203.13;29373;369;63005;-62
2021/04/27 00:08:29;;;;;;;0.60;0.60;;;;;;;6.70;36.99;96194.50;29373;277;63012;-62
2021/04/27 00:09:00;;;;;;;0.50;0.50;;;;;;;6.70;37.22;96202.59;29371;328;64009;-62
2021/04/27 00:09:31;;;;;;;0.60;0.60;;;;;;;6.72;36.52;96203.13;29395;306;63009;-55
2021/04/27 00:10:06;;;;;;;0.60;0.60;;;;;;;6.75;36.86;96203.63;29373;305;63004;-54
2021/04/27 00:10:37;;;;;;;0.50;0.50;;;;;;;6.77;36.51;96196.88;29393;283;64013;-62
2021/04/27 00:11:09;;;;;;;0.50;0.50;;;;;;;6.78;36.46;96200.38;29373;209;63004;-56
2021/04/27 00:11:41;;;;;;;0.50;0.50;;;;;;;6.77;36.78;96204.16;29373;254;63009;-56
2021/04/27 00:12:14;;;;;;;0.60;0.60;;;;;;;6.75;37.66;96203.63;29371;265;64009;-63
2021/04/27 00:12:46;;;;;;;0.60;0.60;;;;;;;6.71;37.45;96201.50;29395;228;63009;-62
2021/04/27 00:13:18;;;;;;;0.50;0.50;;;;;;;6.71;36.97;96198.81;29373;197;63005;-62
2021/04/27 00:13:50;;;;;;;0.60;0.60;;;;;;;6.70;37.08;96197.19;29373;243;63009;-61
2021/04/27 00:14:21;;;;;;;0.50;0.50;;;;;;;6.68;37.22;96196.69;29372;328;64005;-64
2021/04/27 00:14:52;;;;;;;0.60;0.60;;;;;;;6.72;36.54;96195.03;29373;284;63023;-62
2021/04/27 00:15:26;;;;;;;0.60;0.60;;;;;;;6.73;36.64;96198.53;29373;327;63005;-55
2021/04/27 00:15:58;;;;;;;0.55;0.55;;;;;;;6.66;36.43;96196.16;29371;261;64013;-54
2021/04/27 00:16:29;;;;;;;0.60;0.60;;;;;;;6.63;36.69;96190.53;29373;283;63004;-62
2021/04/27 00:17:00;;;;;;;0.50;0.50;;;;;;;6.61;36.71;96193.50;29373;208;63009;-55
2021/04/27 00:17:32;;;;;;;0.60;0.60;;;;;;;6.61;37.18;96193.50;29371;274;64009;-62
2021/04/27 00:18:07;;;;;;;0.60;0.60;;;;;;;6.61;37.64;96193.50;29373;213;63009;-62
2021/04/27 00:18:39;;;;;;;0.60;0.60;;;;;;;6.61;37.31;96196.19;29373;218;63004;-61
2021/04/27 00:19:13;;;;;;;0.60;0.60;;;;;;;6.60;37.01;96199.97;29373;226;63009;-54
2021/04/27 00:19:45;;;;;;;0.60;0.60;;;;;;;6.59;37.05;96195.69;29373;227;63005;-61
2021/04/27 00:20:20;;;;;;;0.60;0.60;;;;;;;6.57;37.03;96192.50;29373;224;63009;-61
2021/04/27 00:20:52;;;;;;;0.60;0.60;;;;;;;6.51;37.28;96190.94;29373;312;63005;-61
2021/04/27 00:21:23;;;;;;;0.60;0.60;;;;;;;6.48;37.17;96199.56;29371;301;64013;-53
2021/04/27 00:21:55;;;;;;;0.60;0.60;;;;;;;6.47;37.53;96192.56;29373;199;63005;-54
2021/04/27 00:22:26;;;;;;;0.60;0.60;;;;;;;6.45;37.51;96200.16;29373;368;63009;-62
2021/04/27 00:22:58;;;;;;;0.50;0.50;;;;;;;6.44;37.42;96198.53;29373;331;63005;-61
2021/04/27 00:23:29;;;;;;;0.60;0.60;;;;;;;6.43;38.80;96202.31;29371;309;64013;-62
2021/04/27 00:24:02;;;;;;;0.60;0.60;;;;;;;6.43;38.56;96196.94;29373;236;63004;-62
2021/04/27 00:24:36;;;;;;;0.60;0.60;;;;;;;6.43;38.38;96196.13;29373;282;63009;-62
2021/04/27 00:25:09;;;;;;;0.60;0.60;;;;;;;6.42;38.36;96200.72;29373;274;63004;-63
2021/04/27 00:25:40;;;;;;;0.60;0.60;;;;;;;6.41;38.61;96199.09;29373;229;63009;-62
2021/04/27 00:26:12;;;;;;;0.60;0.60;;;;;;;6.41;38.44;96199.09;29373;340;63004;-63
2021/04/27 00:26:43;;;;;;;0.60;0.60;;;;;;;6.42;39.29;96195.31;29373;432;63009;-53
2021/04/27 00:27:14;;;;;;;0.60;0.60;;;;;;;6.40;39.29;96192.09;29373;266;63011;-61
2021/04/27 00:27:49;;;;;;;0.60;0.60;;;;;;;6.40;39.22;96194.78;29373;367;63009;-54
2021/04/27 00:28:22;;;;;;;0.60;0.60;;;;;;;6.37;38.94;96196.16;29394;220;64009;-53
2021/04/27 00:28:54;;;;;;;0.60;0.60;;;;;;;6.37;39.29;96198.06;29373;225;63009;-61
2021/04/27 00:29:25;;;;;;;0.60;0.60;;;;;;;6.34;39.31;96194.03;29373;278;63009;-54
2021/04/27 00:29:57;;;;;;;0.60;0.60;;;;;;;6.36;39.47;96191.06;29373;266;63009;-54
2021/04/27 00:30:30;;;;;;;0.60;0.60;;;;;;;6.36;39.16;96199.13;29395;290;63005;-61
2021/04/27 00:31:01;;;;;;;0.60;0.60;;;;;;;6.35;39.21;96192.13;29395;228;63009;-61
2021/04/27 00:31:34;;;;;;;0.60;0.60;;;;;;;6.32;38.75;96190.00;29395;236;63004;-62
2021/04/27 00:32:05;;;;;;;0.60;0.60;;;;;;;6.30;38.71;96192.19;29373;243;63009;-61
2021/04/27 00:32:37;;;;;;;0.60;0.60;;;;;;;6.30;38.61;96186.78;29395;308;63004;-54
2021/04/27 00:33:09;;;;;;;0.60;0.60;;;;;;;6.28;38.42;96183.56;29373;271;63009;-61
2021/04/27 00:33:42;;;;;;;0.60;0.60;;;;;;;6.28;38.93;96183.56;29371;262;64008;-54
2021/04/27 00:34:15;;;;;;;0.60;0.60;;;;;;;6.27;39.75;96188.16;29373;271;63017;-54
2021/04/27 00:34:46;;;;;;;0.60;0.60;;;;;;;6.26;39.62;96188.44;29373;335;63005;-54
2021/04/27 00:35:18;;;;;;;0.60;0.60;;;;;;;6.25;40.26;96184.94;29373;274;63009;-61
2021/04/27 00:35:49;;;;;;;0.60;0.60;;;;;;;6.25;40.37;96186.81;29373;322;63005;-62
2021/04/27 00:36:20;;;;;;;0.60;0.60;;;;;;;6.25;40.44;96189.53;29373;232;63009;-62
2021/04/27 00:36:52;;;;;;;0.60;0.60;;;;;;;6.23;40.41;96187.12;29373;322;63000;-61
2021/04/27 00:37:23;;;;;;;0.60;0.60;;;;;;;6.22;40.08;96184.72;29373;202;63009;-62
2021/04/27 00:37:55;;;;;;;0.60;0.60;;;;;;;6.21;40.40;96188.50;29373;211;63004;-61
2021/04/27 00:38:26;;;;;;;0.60;0.60;;;;;;;6.18;40.66;96189.87;29371;272;64013;-62
2021/04/27 00:38:58;;;;;;;0.60;0.60;;;;;;;6.16;40.37;96192.03;29373;203;63007;-61
2021/04/27 00:39:29;;;;;;;0.60;0.60;;;;;;;6.15;40.72;96185.03;29373;250;63009;-61
2021/04/27 00:40:00;;;;;;;0.55;0.55;;;;;;;6.14;40.74;96188.81;29373;329;63004;-61
2021/04/27 00:40:32;;;;;;;0.60;0.60;;;;;;;6.14;40.74;96182.63;29373;369;63008;-61
2021/04/27 00:41:09;;;;;;;0.60;0.60;;;;;;;6.15;41.12;96195.00;29373;208;63004;-63
2021/04/27 00:41:40;;;;;;;0.55;0.55;;;;;;;6.14;40.75;96188.00;29373;343;63008;-62
2021/04/27 00:42:14;;;;;;;0.60;0.60;;;;;;;6.13;39.53;96187.22;29373;277;63005;-61
2021/04/27 00:42:47;;;;;;;0.60;0.60;;;;;;;6.11;39.83;96189.37;29371;299;64013;-61
2021/04/27 00:43:19;;;;;;;0.60;0.60;;;;;;;6.10;40.03;96192.34;29373;367;63005;-62
2021/04/27 00:43:50;;;;;;;0.60;0.60;;;;;;;6.08;40.18;96189.13;29373;224;63009;-62
2021/04/27 00:44:21;;;;;;;0.60;0.60;;;;;;;6.07;40.55;96190.22;29373;243;63005;-61
2021/04/27 00:44:52;;;;;;;0.50;0.50;;;;;;;6.07;41.19;96192.91;29373;263;63009;-61
2021/04/27 00:45:25;;;;;;;0.60;0.60;;;;;;;6.03;41.23;96188.09;29373;291;63004;-61
2021/04/27 00:45:56;;;;;;;0.50;0.50;;;;;;;5.98;41.90;96193.50;29373;293;63009;-61
2021/04/27 00:46:28;;;;;;;0.60;0.60;;;;;;;5.94;41.60;96189.75;29373;208;63004;-62
2021/04/27 00:46:59;;;;;;;0.60;0.60;;;;;;;5.92;40.44;96180.34;29373;313;63009;-61
2021/04/27 00:47:30;;;;;;;0.60;0.60;;;;;;;5.90;41.01;96188.72;29373;206;63004;-61
2021/04/27 00:48:01;;;;;;;0.60;0.60;;;;;;;5.89;40.71;96187.09;29371;322;64013;-63
2021/04/27 00:48:32;;;;;;;0.60;0.60;;;;;;;5.89;41.59;96181.72;29373;242;63005;-61
2021/04/27 00:49:05;;;;;;;0.60;0.60;;;;;;;5.88;42.38;96184.69;29373;337;63009;-62
2021/04/27 00:49:40;;;;;;;0.70;0.70;;;;;;;5.86;41.84;96182.28;29371;216;64009;-62
2021/04/27 00:50:15;;;;;;;0.50;0.50;;;;;;;5.85;41.52;96180.66;29373;238;63009;-63
2021/04/27 00:50:48;;;;;;;0.60;0.60;;;;;;;5.87;41.51;96183.88;29372;366;64009;-63
2021/04/27 00:51:19;;;;;;;0.50;0.50;;;;;;;5.87;41.99;96170.41;29373;259;63009;-61
2021/04/27 00:51:51;;;;;;;0.60;0.60;;;;;;;5.85;41.90;96179.84;29373;265;63005;-61
2021/04/27 00:52:24;;;;;;;0.60;0.60;;;;;;;5.84;41.74;96173.66;29373;355;63009;-61
2021/04/27 00:52:55;;;;;;;0.57;0.57;;;;;;;5.85;41.91;96185.25;29373;270;63004;-61
2021/04/27 00:53:28;;;;;;;0.70;0.70;;;;;;;5.87;41.55;96183.88;29373;334;63009;-62
2021/04/27 00:54:02;;;;;;;0.60;0.60;;;;;;;5.87;41.27;96178.50;29373;352;63004;-62
2021/04/27 00:54:34;;;;;;;0.60;0.60;;;;;;;5.85;41.19;96175.28;29371;259;64013;-61
2021/04/27 00:55:10;;;;;;;0.60;0.60;;;;;;;5.83;42.95;96177.44;29373;253;63004;-61
2021/04/27 00:55:42;;;;;;;0.60;0.60;;;;;;;5.80;42.53;96180.69;29373;204;63008;-54
2021/04/27 00:56:13;;;;;;;0.60;0.60;;;;;;;5.80;42.20;96182.56;29373;197;63005;-63
2021/04/27 00:56:46;;;;;;;0.60;0.60;;;;;;;5.78;42.06;96177.47;29373;281;63009;-63
2021/04/27 00:57:21;;;;;;;0.60;0.60;;;;;;;5.78;42.06;96177.47;29373;317;63005;-62
2021/04/27 00:57:53;;;;;;;0.60;0.60;;;;;;;5.78;42.18;96177.47;29373;264;63009;-61
2021/04/27 00:58:28;;;;;;;0.60;0.60;;;;;;;5.76;42.02;96181.53;29371;197;64009;-61
2021/04/27 00:58:59;;;;;;;0.60;0.60;;;;;;;5.71;43.08;96179.66;29371;341;64013;-61
2021/04/27 00:59:30;;;;;;;0.60;0.60;;;;;;;5.67;42.22;96178.62;29373;251;63005;-53
2021/04/27 01:00:03;;;;;;;0.60;0.60;;;;;;;5.66;42.54;96177.00;29373;292;63009;-62
2021/04/27 01:00:38;;;;;;;0.60;0.60;;;;;;;5.56;41.82;96177.06;29373;271;63004;-53
2021/04/27 01:01:13;;;;;;;0.60;0.60;;;;;;;5.52;42.37;96176.03;29373;247;63009;-63
2021/04/27 01:01:46;;;;;;;0.60;0.60;;;;;;;5.50;42.92;96183.56;29373;243;63004;-62
2021/04/27 01:02:17;;;;;;;0.60;0.60;;;;;;;5.49;42.71;96182.75;29371;293;64013;-62
2021/04/27 01:02:49;;;;;;;0.60;0.60;;;;;;;5.50;42.64;96178.19;29373;343;63004;-62
2021/04/27 01:03:21;;;;;;;0.60;0.60;;;;;;;5.52;42.79;96181.41;29373;208;63008;-62
2021/04/27 01:03:52;;;;;;;0.60;0.60;;;;;;;5.52;42.82;96181.41;29373;335;63005;-61
2021/04/27 01:04:23;;;;;;;0.60;0.60;;;;;;;5.48;42.82;96175.78;29373;202;63009;-62
2021/04/27 01:04:55;;;;;;;0.60;0.60;;;;;;;5.48;42.71;96180.34;29373;356;63005;-62
2021/04/27 01:05:29;;;;;;;0.60;0.60;;;;;;;5.48;43.00;96180.34;29373;350;63009;-61
2021/04/27 01:06:00;;;;;;;0.60;0.60;;;;;;;5.47;42.86;96173.38;29371;215;64009;-62
2021/04/27 01:06:32;;;;;;;0.60;0.60;;;;;;;5.43;43.04;96172.31;29373;285;63009;-62
2021/04/27 01:07:03;;;;;;;0.60;0.60;;;;;;;5.42;43.12;96182.25;29373;312;63005;-61
2021/04/27 01:07:37;;;;;;;3.22;1.90;;;;;;;5.43;43.42;96183.06;29373;202;63009;-61
2021/04/27 01:08:39;;;;;;;0.60;0.60;;;;;;;5.37;44.20;96175.03;29371;198;64023;-61
2021/04/27 01:09:19;;;;;;;0.60;0.60;;;;;;;5.33;44.33;96173.97;29393;223;64013;-62
2021/04/27 01:10:01;;;;;;;0.60;0.60;;;;;;;5.32;44.26;96177.72;29395;262;63004;-61
2021/04/27 01:10:44;;;;;;;0.60;0.60;;;;;;;5.33;44.39;96173.97;29373;287;63008;-62
2021/04/27 01:11:45;;;;;;;0.60;0.60;;;;;;;5.34;44.49;96178.25;29373;256;63005;-61
2021/04/27 01:12:29;;;;;;;0.60;0.60;;;;;;;5.31;44.20;96176.13;29373;247;63009;-62
2021/04/27 01:13:07;;;;;;;0.60;0.60;;;;;;;5.30;44.19;96179.88;29373;220;63005;-61
2021/04/27 01:14:31;;;;;;;0.60;0.60;;;;;;;5.31;43.99;96176.13;29373;211;63009;-62
2021/04/27 01:15:15;;;;;;;0.70;0.70;;;;;;;5.27;44.32;96176.94;29371;225;64013;-62
2021/04/27 01:15:46;;;;;;;0.60;0.60;;;;;;;5.23;44.60;96178.56;29373;219;63004;-54
2021/04/27 01:16:22;;;;;;;0.60;0.60;;;;;;;5.22;44.73;96177.75;29373;266;63009;-62
2021/04/27 01:17:04;;;;;;;0.60;0.60;;;;;;;5.19;44.57;96177.53;29373;230;63004;-62
2021/04/27 01:17:38;;;;;;;0.70;0.70;;;;;;;5.15;44.48;96177.28;29371;197;64013;-61
2021/04/27 01:18:10;;;;;;;0.70;0.70;;;;;;;5.13;44.42;96179.44;29373;233;63004;-62
2021/04/27 01:18:45;;;;;;;0.60;0.60;;;;;;;5.14;44.88;96178.38;29373;235;63009;-62
2021/04/27 01:19:27;;;;;;;0.60;0.60;;;;;;;5.15;44.66;96171.91;29373;253;63005;-61
2021/04/27 01:20:43;;;;;;;0.70;0.70;;;;;;;5.13;44.41;96171.38;29395;217;63009;-62
2021/04/27 01:21:16;;;;;;;0.60;0.60;;;;;;;5.10;44.44;96168.44;29395;203;63005;-61
2021/04/27 01:21:48;;;;;;;0.70;0.70;;;;;;;5.07;45.01;96171.66;29373;235;63009;-62
2021/04/27 01:22:36;;;;;;;0.60;0.60;;;;;;;5.03;44.65;96174.09;29373;258;63005;-62
2021/04/27 01:23:50;;;;;;;0.70;0.70;;;;;;;5.03;44.71;96168.72;29371;212;64013;-62
2021/04/27 01:24:31;;;;;;;0.60;0.60;;;;;;;5.03;44.54;96172.22;29373;264;63004;-61
2021/04/27 01:25:05;;;;;;;0.70;0.70;;;;;;;5.01;44.29;96166.31;29395;209;63009;-62
2021/04/27 01:25:51;;;;;;;0.60;0.60;;;;;;;4.99;44.75;96167.66;29395;217;63004;-61
2021/04/27 01:26:45;;;;;;;0.60;0.60;;;;;;;5.00;45.01;96170.06;29371;217;64029;-61
2021/04/27 01:27:18;;;;;;;0.60;0.60;;;;;;;5.01;44.85;96170.88;29373;248;63005;-62
2021/04/27 01:27:49;;;;;;;0.60;0.60;;;;;;;5.01;44.77;96165.50;29373;207;63009;-61
2021/04/27 01:28:22;;;;;;;0.60;0.60;;;;;;;5.00;44.68;96169.25;29373;249;63005;-61
2021/04/27 01:28:54;;;;;;;0.60;0.60;;;;;;;5.01;45.27;96170.88;29373;226;63009;-62
2021/04/27 01:29:29;;;;;;;0.60;0.60;;;;;;;4.98;45.05;96168.72;29373;239;63005;-54
2021/04/27 01:30:01;;;;;;;0.60;0.60;;;;;;;4.96;45.77;96174.37;29373;206;63009;-62
2021/04/27 01:30:38;;;;;;;0.60;0.60;;;;;;;4.94;45.30;96167.66;29373;263;63004;-61
2021/04/27 01:31:10;;;;;;;0.60;0.60;;;;;;;4.93;45.02;96164.19;29373;227;63009;-62
2021/04/27 01:31:43;;;;;;;0.60;0.60;;;;;;;4.94;45.29;96167.66;29371;198;64009;-62
2021/04/27 01:32:15;;;;;;;0.60;0.60;;;;;;;4.91;46.84;96170.91;29372;197;63009;-62
2021/04/27 01:32:46;;;;;;;0.60;0.60;;;;;;;4.90;46.60;96158.53;29373;239;63004;-62
2021/04/27 01:33:22;;;;;;;0.60;0.60;;;;;;;4.88;46.58;96158.00;29373;218;63008;-61
2021/04/27 01:33:55;;;;;;;0.60;0.60;;;;;;;4.88;46.04;96161.50;29373;224;63005;-62
2021/04/27 01:34:29;;;;;;;0.60;0.60;;;;;;;4.86;45.66;96152.91;29373;208;63009;-62
2021/04/27 01:35:01;;;;;;;0.60;0.60;;;;;;;4.86;45.73;96160.16;29372;210;63005;-62
2021/04/27 01:35:33;;;;;;;0.60;0.60;;;;;;;4.86;45.89;96157.47;29373;241;63009;-62
2021/04/27 01:36:05;;;;;;;0.60;0.60;;;;;;;4.88;45.91;96163.38;29373;228;63005;-62
2021/04/27 01:36:37;;;;;;;0.60;0.60;;;;;;;4.89;45.83;96162.31;29373;208;63009;-61
2021/04/27 01:37:10;;;;;;;0.60;0.60;;;;;;;4.87;45.62;96154.50;29371;214;64009;-62
2021/04/27 01:37:42;;;;;;;0.60;0.60;;;;;;;4.88;45.62;96155.31;29373;225;63009;-62
2021/04/27 01:38:15;;;;;;;0.60;0.60;;;;;;;4.87;45.95;96159.09;29373;220;63004;-62
2021/04/27 01:38:47;;;;;;;0.60;0.60;;;;;;;4.82;47.16;96165.31;29372;237;63009;-62
2021/04/27 01:39:25;;;;;;;0.60;0.60;;;;;;;4.79;46.44;96159.69;29373;264;63004;-62
2021/04/27 01:39:57;;;;;;;0.60;0.60;;;;;;;4.80;46.19;96164.78;29373;245;63009;-62
2021/04/27 01:40:29;;;;;;;0.60;0.60;;;;;;;4.81;45.81;96160.22;29373;221;63004;-61
2021/04/27 01:41:01;;;;;;;0.60;0.60;;;;;;;4.78;46.68;96161.56;29373;227;63008;-62
2021/04/27 01:41:35;;;;;;;0.60;0.60;;;;;;;4.77;46.11;96159.94;29373;225;63005;-62
2021/04/27 01:42:07;;;;;;;0.60;0.60;;;;;;;4.76;46.57;96165.59;29371;260;64014;-62
2021/04/27 01:42:39;;;;;;;0.60;0.60;;;;;;;4.76;46.43;96160.22;29373;197;63005;-62
2021/04/27 01:43:12;;;;;;;0.60;0.60;;;;;;;4.76;46.59;96161.03;29373;203;63020;-61
2021/04/27 01:43:45;;;;;;;0.60;0.60;;;;;;;4.74;46.41;96155.12;29373;204;63005;-62
2021/04/27 01:44:18;;;;;;;0.60;0.60;;;;;;;4.74;46.37;96154.31;29373;254;63009;-61
2021/04/27 01:44:50;;;;;;;0.60;0.60;;;;;;;4.71;46.76;96161.84;29373;223;63004;-61
2021/04/27 01:45:27;;;;;;;0.60;0.60;;;;;;;4.66;47.03;96158.34;29373;209;63009;-61
2021/04/27 01:46:03;;;;;;;0.60;0.60;;;;;;;4.61;46.99;96156.47;29373;249;63004;-62
2021/04/27 01:46:39;;;;;;;0.60;0.60;;;;;;;4.60;47.16;96160.25;29373;236;63009;-61
2021/04/27 01:47:11;;;;;;;1.00;1.00;;;;;;;4.60;47.23;96157.56;29371;221;64008;-62
2021/04/27 01:47:42;;;;;;;0.60;0.60;;;;;;;4.61;46.81;96153.78;29373;245;63008;-62
2021/04/27 01:48:15;;;;;;;0.60;0.60;;;;;;;4.61;47.64;96156.47;29373;209;63004;-61
2021/04/27 01:48:46;;;;;;;0.60;0.60;;;;;;;4.64;47.36;96158.63;29373;203;63008;-62
2021/04/27 01:49:19;;;;;;;0.60;0.60;;;;;;;4.62;48.37;96158.09;29372;213;63005;-54
2021/04/27 01:49:50;;;;;;;0.60;0.60;;;;;;;4.61;47.13;96156.47;29373;219;63009;-54
2021/04/27 01:50:22;;;;;;;0.60;0.60;;;;;;;4.58;46.76;96151.66;29373;229;63005;-61
2021/04/27 01:50:57;;;;;;;0.60;0.60;;;;;;;4.63;46.72;96154.34;29371;230;64013;-63
2021/04/27 01:51:31;;;;;;;0.60;0.60;;;;;;;4.65;46.40;96156.75;29373;220;63005;-63
2021/04/27 01:52:02;;;;;;;0.60;0.60;;;;;;;4.64;46.58;96155.94;29373;246;63009;-62
2021/04/27 01:52:34;;;;;;;0.60;0.60;;;;;;;4.62;46.61;96157.28;29373;238;63004;-63
2021/04/27 01:53:06;;;;;;;0.60;0.60;;;;;;;4.61;46.59;96150.31;29373;200;63009;-61
2021/04/27 01:53:45;;;;;;;0.60;0.60;;;;;;;4.61;46.95;96156.47;29373;251;63004;-61
2021/04/27 01:54:17;;;;;;;0.60;0.60;;;;;;;4.61;47.08;96159.16;29373;253;63009;-62
2021/04/27 01:54:48;;;;;;;0.60;0.60;;;;;;;4.61;46.70;96158.38;29371;329;64008;-54
2021/04/27 01:55:20;;;;;;;0.52;0.52;;;;;;;4.60;47.25;96152.19;29372;324;63008;-61
2021/04/27 01:55:52;;;;;;;0.60;0.60;;;;;;;4.58;47.22;96158.91;29372;205;63005;-62
2021/04/27 01:56:23;;;;;;;0.62;0.62;;;;;;;4.58;47.23;96157.03;29373;217;63009;-62
2021/04/27 01:56:55;;;;;;;0.60;0.60;;;;;;;4.59;46.95;96153.25;29371;227;64009;-54
2021/04/27 01:57:26;;;;;;;0.60;0.60;;;;;;;4.60;47.10;96149.50;29373;215;63009;-57
2021/04/27 01:57:57;;;;;;;0.60;0.60;;;;;;;4.59;47.14;96147.88;29373;300;63005;-62
2021/04/27 01:58:28;;;;;;;0.60;0.60;;;;;;;4.57;46.75;96144.66;29373;232;63009;-63
2021/04/27 01:58:59;;;;;;;0.60;0.60;;;;;;;4.56;46.95;96147.62;29373;218;63005;-54
2021/04/27 01:59:30;;;;;;;0.60;0.60;;;;;;;4.55;47.56;96144.13;29373;284;63009;-63
2021/04/27 02:00:07;;;;;;;0.60;0.60;;;;;;;4.55;48.28;96144.13;29373;316;63004;-61
2021/04/27 02:00:38;;;;;;;0.60;0.60;;;;;;;4.54;47.92;96145.22;29373;202;63009;-62
2021/04/27 02:01:11;;;;;;;0.60;0.60;;;;;;;4.53;48.47;96143.59;29373;210;63004;-61
2021/04/27 02:01:43;;;;;;;0.60;0.60;;;;;;;4.51;48.31;96145.75;29373;234;63009;-61
2021/04/27 02:02:14;;;;;;;0.60;0.60;;;;;;;4.48;48.32;96143.63;29371;222;64008;-61
2021/04/27 02:02:46;;;;;;;0.60;0.60;;;;;;;4.49;48.02;96147.13;29373;264;63008;-61
2021/04/27 02:03:18;;;;;;;0.62;0.62;;;;;;;4.49;47.69;96142.56;29373;202;63005;-62
2021/04/27 02:03:50;;;;;;;0.70;0.70;;;;;;;4.48;47.37;96135.56;29373;214;63009;-62
2021/04/27 02:04:27;;;;;;;0.70;0.70;;;;;;;4.47;47.36;96143.91;29373;231;63005;-61
2021/04/27 02:04:58;;;;;;;0.60;0.60;;;;;;;4.48;47.33;96137.47;29371;246;64013;-61
2021/04/27 02:05:29;;;;;;;0.70;0.70;;;;;;;4.50;47.23;96138.00;29373;239;63005;-62
2021/04/27 02:06:00;;;;;;;0.60;0.60;;;;;;;4.49;47.47;96137.19;29373;219;63009;-60
2021/04/27 02:06:32;;;;;;;0.70;0.70;;;;;;;4.49;48.23;96139.88;29373;244;63005;-61
2021/04/27 02:07:04;;;;;;;0.60;0.60;;;;;;;4.48;48.40;96140.94;29395;204;63009;-61
2021/04/27 02:07:35;;;;;;;0.60;0.60;;;;;;;4.47;48.20;96139.34;29373;210;63004;-62
2021/04/27 02:08:07;;;;;;;0.60;0.60;;;;;;;4.49;48.52;96142.56;29373;216;63009;-61
2021/04/27 02:08:40;;;;;;;0.70;0.70;;;;;;;4.51;48.63;96135.00;29373;197;63004;-62
2021/04/27 02:09:13;;;;;;;0.70;0.70;;;;;;;4.54;47.79;96141.72;29373;243;63009;-62
2021/04/27 02:09:45;;;;;;;0.60;0.60;;;;;;;4.54;45.86;96134.47;29373;196;63000;-62
2021/04/27 02:10:17;;;;;;;0.70;0.70;;;;;;;4.54;45.80;96139.84;29371;232;64013;-61
2021/04/27 02:10:49;;;;;;;0.70;0.70;;;;;;;4.53;46.09;96138.22;29373;253;63005;-61
2021/04/27 02:11:21;;;;;;;0.70;0.70;;;;;;;4.53;46.42;96132.84;29373;239;63009;-62
2021/04/27 02:11:54;;;;;;;0.60;0.60;;;;;;;4.54;47.34;96139.84;29373;227;63005;-62
2021/04/27 02:12:28;;;;;;;0.60;0.60;;;;;;;4.56;47.60;96135.00;29373;222;63009;-62
2021/04/27 02:13:07;;;;;;;0.60;0.60;;;;;;;4.55;46.42;96136.06;29373;221;63005;-62
2021/04/27 02:13:40;;;;;;;0.60;0.60;;;;;;;4.54;46.56;96129.09;29373;220;63009;-61
2021/04/27 02:14:14;;;;;;;1.95;1.87;;;;;;;4.56;46.79;96137.69;29371;221;64009;-61
2021/04/27 02:14:45;;;;;;;0.60;0.60;;;;;;;4.58;47.08;96140.91;29373;210;63009;-61
2021/04/27 02:15:20;;;;;;;0.60;0.60;;;;;;;4.59;47.11;96136.34;29373;225;63004;-61
2021/04/27 02:15:52;;;;;;;0.60;0.60;;;;;;;4.60;47.09;96138.75;29373;212;63009;-63
2021/04/27 02:16:36;;;;;;;0.60;0.60;;;;;;;4.61;47.38;96135.00;29373;210;63004;-61
2021/04/27 02:17:17;;;;;;;0.60;0.60;;;;;;;4.61;47.40;96135.00;29373;221;63009;-60
2021/04/27 02:18:01;;;;;;;0.60;0.60;;;;;;;4.58;48.62;96138.22;29373;264;63004;-61
2021/04/27 02:18:38;;;;;;;0.60;0.60;;;;;;;4.58;48.20;96134.72;29373;214;63009;-61
2021/04/27 02:19:10;;;;;;;0.60;0.60;;;;;;;4.57;47.52;96133.91;29373;260;63005;-61
2021/04/27 02:19:45;;;;;;;0.60;0.60;;;;;;;4.59;47.19;96131.78;29371;220;64014;-63
2021/04/27 02:20:22;;;;;;;0.60;0.60;;;;;;;4.58;47.00;96130.16;29373;202;63005;-62
2021/04/27 02:20:58;;;;;;;0.60;0.60;;;;;;;4.59;47.20;96130.97;29373;248;63009;-62
2021/04/27 02:21:32;;;;;;;0.60;0.60;;;;;;;4.60;47.21;96129.87;29373;236;63005;-62
2021/04/27 02:22:06;;;;;;;0.60;0.60;;;;;;;4.61;47.02;96134.19;29373;197;63009;-62
2021/04/27 02:22:41;;;;;;;0.60;0.60;;;;;;;4.60;46.93;96133.38;29373;253;63004;-60
2021/04/27 02:23:14;;;;;;;0.60;0.60;;;;;;;4.59;46.64;96131.78;29373;202;63009;-60
2021/04/27 02:23:46;;;;;;;0.60;0.60;;;;;;;4.55;46.72;96130.69;29371;218;64009;-62
2021/04/27 02:24:18;;;;;;;0.60;0.60;;;;;;;4.57;47.16;96133.91;29373;210;63009;-61
2021/04/27 02:24:51;;;;;;;0.60;0.60;;;;;;;4.60;47.12;96129.87;29373;215;63004;-60
2021/04/27 02:25:23;;;;;;;0.60;0.60;;;;;;;4.59;47.31;96131.78;29371;211;64013;-61
2021/04/27 02:25:56;;;;;;;0.60;0.60;;;;;;;4.57;47.44;96131.22;29373;211;63005;-61
2021/04/27 02:26:29;;;;;;;0.60;0.60;;;;;;;4.55;47.23;96128.00;29373;221;63009;-62
2021/04/27 02:27:02;;;;;;;0.60;0.60;;;;;;;4.52;46.72;96135.81;29373;206;63005;-62
2021/04/27 02:27:36;;;;;;;0.70;0.70;;;;;;;4.48;46.15;96124.03;29373;255;63009;-62
2021/04/27 02:28:08;;;;;;;0.60;0.60;;;;;;;4.47;46.56;96125.91;29373;230;63005;-62
2021/04/27 02:28:41;;;;;;;0.60;0.60;;;;;;;4.48;47.00;96124.03;29371;227;64013;-61
2021/04/27 02:29:13;;;;;;;0.60;0.60;;;;;;;4.47;47.20;96131.28;29373;197;63005;-62
2021/04/27 02:29:45;;;;;;;0.70;0.70;;;;;;;4.47;47.52;96131.28;29373;228;63009;-61
2021/04/27 02:30:20;;;;;;;0.60;0.60;;;;;;;4.48;47.94;96130.22;29373;250;63004;-61
2021/04/27 02:30:53;;;;;;;0.60;0.60;;;;;;;4.48;47.77;96129.41;29373;256;63009;-61
2021/04/27 02:31:24;;;;;;;0.60;0.60;;;;;;;4.47;47.75;96127.78;29373;199;63004;-61
2021/04/27 02:32:00;;;;;;;0.60;0.60;;;;;;;4.46;47.59;96129.66;29373;217;63009;-61
2021/04/27 02:32:31;;;;;;;0.60;0.60;;;;;;;4.46;47.20;96127.00;29371;213;64008;-61
2021/04/27 02:33:03;;;;;;;0.60;0.60;;;;;;;4.47;47.05;96128.59;29373;266;63008;-61
2021/04/27 02:33:34;;;;;;;0.60;0.60;;;;;;;4.48;47.03;96127.53;29371;211;64009;-54
2021/04/27 02:34:06;;;;;;;0.60;0.60;;;;;;;4.48;47.59;96118.66;29373;224;63009;-62
2021/04/27 02:34:38;;;;;;;0.60;0.60;;;;;;;4.47;48.02;96125.91;29373;259;63005;-62
2021/04/27 02:35:11;;;;;;;0.60;0.60;;;;;;;4.47;47.89;96123.22;29373;230;63009;-62
2021/04/27 02:35:43;;;;;;;0.50;0.50;;;;;;;4.46;47.88;96132.34;29373;197;63005;-62
2021/04/27 02:36:14;;;;;;;0.60;0.60;;;;;;;4.46;47.69;96129.66;29372;241;63009;-61
2021/04/27 02:36:46;;;;;;;0.55;0.55;;;;;;;4.42;48.15;96120.53;29373;227;63005;-61
2021/04/27 02:37:18;;;;;;;0.60;0.60;;;;;;;4.42;47.58;96120.53;29373;241;63009;-62
2021/04/27 02:37:51;;;;;;;0.60;0.60;;;;;;;4.45;48.42;96133.44;29371;244;64009;-61
2021/04/27 02:38:23;;;;;;;0.60;0.60;;;;;;;4.46;48.33;96136.94;29373;264;63009;-61
2021/04/27 02:38:55;;;;;;;0.60;0.60;;;;;;;4.46;48.38;96127.00;29373;221;63004;-61
2021/04/27 02:39:27;;;;;;;0.60;0.60;;;;;;;4.47;47.70;96127.78;29373;221;63009;-61
2021/04/27 02:39:58;;;;;;;0.60;0.60;;;;;;;4.46;47.63;96127.00;29373;237;63004;-62
2021/04/27 02:40:29;;;;;;;0.60;0.60;;;;;;;4.46;47.42;96120.81;29373;205;63008;-61
2021/04/27 02:41:03;;;;;;;0.70;0.70;;;;;;;4.44;47.89;96128.34;29371;215;64009;-61
2021/04/27 02:41:35;;;;;;;0.60;0.60;;;;;;;4.41;47.69;96121.63;29373;245;63009;-61
2021/04/27 02:42:07;;;;;;;0.60;0.60;;;;;;;4.40;47.74;96127.25;29373;249;63005;-61
2021/04/27 02:42:40;;;;;;;0.60;0.60;;;;;;;4.38;47.57;96120.28;29371;197;64013;-61
2021/04/27 02:43:11;;;;;;;0.60;0.60;;;;;;;4.39;47.94;96121.09;29373;263;63005;-61